Weather at Accomack County Airport

Public forecast

Using degrees Fahrenheit for public forecast. Weather courtesy of forecast.io.

Current aviation weather report (METAR) for Accomack County Airport

Retrieved 2022/01/25 11:35 UTC (0 seconds ago):

KMFV 251135Z AUTO 23008KT 10SM CLR 03/03 A2991 RMK AO2 T00320025

Closest aviation forecast (TAF) to Accomack County Airport

Closest forecast is Salisbury Ocean City Wicomico Regional Airport, 43.3 nm (80.2 km) NNE. Retrieved 2022/01/25 06:27 UTC (5 hours ago):

TAF KSBY 250524Z 2506/2606 19008KT P6SM BKN120 FM251400 24006KT P6SM OVC080 FM251700 31007KT P6SM BKN060 FM252300 34008KT P6SM SCT050